createdAt,value
2023-01-23T00:01:32.155Z,1.87
2023-01-23T00:04:00.828Z,2.13
2023-01-23T00:06:28.735Z,2.06
2023-01-23T00:08:56.939Z,1.93
2023-01-23T00:11:30.336Z,1.82
2023-01-23T00:13:58.948Z,2.01
2023-01-23T00:16:29.303Z,2.01
2023-01-23T00:18:57.302Z,2.17
2023-01-23T00:21:27.781Z,2.15
2023-01-23T00:23:58.300Z,2.12
2023-01-23T00:26:28.616Z,2.07
2023-01-23T00:28:56.816Z,1.93
2023-01-23T00:31:30.775Z,2.10
2023-01-23T00:34:11.340Z,2.06
2023-01-23T00:36:41.198Z,2.05
2023-01-23T00:39:21.448Z,2.01
2023-01-23T00:41:50.007Z,2.16
2023-01-23T00:44:17.986Z,2.24
2023-01-23T00:46:45.860Z,2.15
2023-01-23T00:49:13.426Z,2.23
2023-01-23T00:51:40.783Z,2.25
2023-01-23T00:54:07.894Z,2.17
2023-01-23T00:56:35.140Z,2.10
2023-01-23T00:59:02.259Z,2.19
2023-01-23T01:01:31.646Z,2.33
2023-01-23T01:03:59.978Z,2.07
2023-01-23T01:06:27.572Z,2.12
2023-01-23T01:08:54.636Z,2.25
2023-01-23T01:11:21.830Z,2.10
2023-01-23T01:13:49.007Z,2.25
2023-01-23T01:16:16.361Z,2.27
2023-01-23T01:18:43.792Z,2.12
2023-01-23T01:21:14.199Z,2.20
2023-01-23T01:23:41.739Z,2.28
2023-01-23T01:26:09.556Z,2.24
2023-01-23T01:28:39.498Z,2.13
2023-01-23T01:31:14.869Z,2.12
2023-01-23T01:33:43.923Z,2.17
2023-01-23T01:36:16.854Z,2.16
2023-01-23T01:38:44.604Z,2.22
2023-01-23T01:41:12.676Z,2.02
2023-01-23T01:43:39.945Z,2.20
2023-01-23T01:46:09.953Z,2.13
2023-01-23T01:48:46.472Z,2.21
2023-01-23T01:51:28.526Z,2.33
2023-01-23T01:54:49.204Z,2.53
2023-01-23T01:57:42.513Z,2.36
2023-01-23T02:00:19.566Z,2.49
2023-01-23T02:03:04.108Z,2.45
2023-01-23T02:05:43.056Z,2.42
2023-01-23T02:08:58.691Z,2.24
2023-01-23T02:11:25.829Z,2.43
2023-01-23T02:13:55.403Z,2.52
2023-01-23T02:16:31.429Z,2.52
2023-01-23T02:19:04.399Z,2.48
2023-01-23T02:21:32.290Z,2.54
2023-01-23T02:24:26.262Z,2.46
2023-01-23T02:26:53.261Z,2.62
2023-01-23T02:29:20.616Z,2.66
2023-01-23T02:31:49.789Z,2.71
2023-01-23T02:34:17.241Z,2.74
2023-01-23T02:36:48.114Z,2.71
2023-01-23T02:39:19.104Z,2.57
2023-01-23T02:41:50.070Z,2.77
2023-01-23T02:44:26.724Z,2.70
2023-01-23T02:46:59.569Z,2.48
2023-01-23T02:49:27.192Z,2.33
2023-01-23T02:51:55.316Z,2.49
2023-01-23T02:54:24.258Z,2.32
2023-01-23T02:56:51.691Z,2.26
2023-01-23T02:59:37.207Z,2.22
2023-01-23T03:02:05.533Z,2.32
2023-01-23T03:04:32.677Z,2.43
2023-01-23T03:07:00.347Z,2.56
2023-01-23T03:09:27.783Z,2.57
2023-01-23T03:11:55.028Z,2.37
2023-01-23T03:14:24.226Z,2.35
2023-01-23T03:16:53.744Z,2.39
2023-01-23T03:19:24.562Z,2.53
2023-01-23T03:21:52.718Z,2.38
2023-01-23T03:24:21.063Z,2.31
2023-01-23T03:26:50.666Z,2.17
2023-01-23T03:29:41.245Z,2.06
2023-01-23T03:32:09.034Z,2.08
2023-01-23T03:34:36.268Z,2.16
2023-01-23T03:37:04.392Z,1.91
2023-01-23T03:39:50.408Z,1.95
2023-01-23T03:42:17.439Z,1.84
2023-01-23T03:44:44.619Z,1.86
2023-01-23T03:47:11.714Z,1.88
2023-01-23T03:49:38.818Z,1.87
2023-01-23T03:52:06.318Z,1.83
2023-01-23T03:54:33.619Z,1.89
2023-01-23T03:57:00.646Z,1.88
2023-01-23T03:59:27.722Z,1.94
2023-01-23T04:01:54.976Z,1.97
2023-01-23T04:04:21.988Z,1.92
2023-01-23T04:06:49.015Z,1.91
2023-01-23T04:09:16.048Z,1.93
2023-01-23T04:11:43.059Z,1.95
2023-01-23T04:14:10.108Z,2.06
2023-01-23T04:16:37.149Z,2.04
2023-01-23T04:19:04.307Z,2.07
2023-01-23T04:21:31.391Z,2.04
2023-01-23T04:23:58.434Z,2.17
2023-01-23T04:26:25.444Z,2.18
2023-01-23T04:28:52.439Z,2.30
2023-01-23T04:31:19.537Z,2.35
2023-01-23T04:33:46.585Z,2.35
2023-01-23T04:36:14.157Z,2.18
2023-01-23T04:38:41.174Z,2.37
2023-01-23T04:41:09.729Z,2.30
2023-01-23T04:43:36.772Z,2.23
2023-01-23T04:46:03.887Z,2.17
2023-01-23T04:48:30.926Z,2.14
2023-01-23T04:50:57.967Z,2.19
2023-01-23T04:53:25.142Z,2.26
2023-01-23T04:55:52.137Z,2.33
2023-01-23T04:58:19.824Z,2.51
2023-01-23T05:00:47.429Z,2.60
2023-01-23T05:03:15.759Z,2.41
2023-01-23T05:05:44.324Z,2.35
2023-01-23T05:08:12.290Z,2.47
2023-01-23T05:10:39.684Z,2.43
2023-01-23T05:13:06.763Z,2.23
2023-01-23T05:15:33.903Z,2.22
2023-01-23T05:18:01.026Z,2.23
2023-01-23T05:20:28.052Z,2.31
2023-01-23T05:22:56.499Z,2.33
2023-01-23T05:25:28.495Z,2.39
2023-01-23T05:27:56.260Z,2.41
2023-01-23T05:30:23.923Z,2.40
2023-01-23T05:32:51.324Z,2.39
2023-01-23T05:35:19.004Z,2.45
2023-01-23T05:37:53.286Z,2.40
2023-01-23T05:40:21.373Z,2.50
2023-01-23T05:42:49.437Z,2.29
2023-01-23T05:45:17.770Z,2.43
2023-01-23T05:47:45.079Z,2.47
2023-01-23T05:50:20.112Z,2.59
2023-01-23T05:52:47.367Z,2.59
2023-01-23T05:55:14.576Z,2.58
2023-01-23T05:57:41.708Z,2.64
2023-01-23T06:00:11.564Z,2.69
2023-01-23T06:02:38.684Z,2.70
2023-01-23T06:05:06.449Z,2.80
2023-01-23T06:07:33.496Z,2.80
2023-01-23T06:10:00.788Z,2.70
2023-01-23T06:12:27.808Z,2.64
2023-01-23T06:14:54.889Z,2.58
2023-01-23T06:17:21.970Z,2.46
2023-01-23T06:19:49.569Z,2.44
2023-01-23T06:22:16.836Z,2.50
2023-01-23T06:24:43.850Z,2.37
2023-01-23T06:27:11.355Z,2.27
2023-01-23T06:29:38.493Z,2.40
2023-01-23T06:32:08.110Z,2.40
2023-01-23T06:34:38.183Z,2.55
2023-01-23T06:37:05.324Z,2.46
2023-01-23T06:39:34.218Z,2.59
2023-01-23T06:42:01.542Z,2.59
2023-01-23T06:44:28.739Z,2.63
2023-01-23T06:46:55.806Z,2.71
2023-01-23T06:49:22.840Z,2.52
2023-01-23T06:51:49.856Z,2.36
2023-01-23T06:54:17.027Z,2.50
2023-01-23T06:56:44.030Z,2.39
2023-01-23T06:59:11.048Z,2.50
2023-01-23T07:01:38.119Z,2.49
2023-01-23T07:04:05.161Z,2.55
2023-01-23T07:06:32.236Z,2.51
2023-01-23T07:08:59.303Z,2.71
2023-01-23T07:11:26.819Z,2.74
2023-01-23T07:13:54.338Z,2.71
2023-01-23T07:16:21.464Z,2.76
2023-01-23T07:18:48.492Z,2.72
2023-01-23T07:21:15.836Z,2.84
2023-01-23T07:23:42.821Z,2.87
2023-01-23T07:26:11.633Z,2.85
2023-01-23T07:28:39.361Z,2.88
2023-01-23T07:31:07.079Z,2.90
2023-01-23T07:33:34.275Z,2.96
2023-01-23T07:36:01.281Z,2.86
2023-01-23T07:38:28.286Z,2.89
2023-01-23T07:40:59.392Z,2.93
2023-01-23T07:43:27.476Z,2.73
2023-01-23T07:45:54.517Z,2.63
2023-01-23T07:48:21.621Z,2.52
2023-01-23T07:50:48.617Z,2.70
2023-01-23T07:53:15.627Z,2.76
2023-01-23T07:55:42.729Z,2.86
2023-01-23T07:58:09.837Z,2.96
2023-01-23T08:00:36.991Z,2.94
2023-01-23T08:03:04.093Z,3.02
2023-01-23T08:05:31.151Z,3.01
2023-01-23T08:08:12.237Z,3.05
2023-01-23T08:10:40.910Z,3.07
2023-01-23T08:13:08.236Z,2.85
2023-01-23T08:15:36.685Z,3.08
2023-01-23T08:18:03.887Z,3.01
2023-01-23T08:20:30.889Z,3.16
2023-01-23T08:22:59.088Z,2.90
2023-01-23T08:25:26.148Z,2.68
2023-01-23T08:27:53.171Z,2.64
2023-01-23T08:30:20.550Z,2.70
2023-01-23T08:32:47.778Z,2.96
2023-01-23T08:35:15.195Z,2.96
2023-01-23T08:37:42.363Z,2.92
2023-01-23T08:40:10.672Z,3.00
2023-01-23T08:42:37.654Z,3.05
2023-01-23T08:45:05.285Z,3.21
2023-01-23T08:47:36.706Z,3.08
2023-01-23T08:50:05.840Z,2.94
2023-01-23T08:52:34.783Z,3.11
2023-01-23T08:55:01.986Z,3.26
2023-01-23T08:57:29.316Z,3.10
2023-01-23T08:59:56.403Z,2.97
2023-01-23T09:02:23.903Z,3.36
2023-01-23T09:04:51.142Z,3.20
2023-01-23T09:07:18.217Z,2.93
2023-01-23T09:09:45.296Z,2.74
2023-01-23T09:12:14.494Z,2.77
2023-01-23T09:14:41.596Z,2.90
2023-01-23T09:17:08.650Z,3.02
2023-01-23T09:19:35.815Z,2.91
2023-01-23T09:22:03.725Z,3.12
2023-01-23T09:24:30.768Z,3.18
2023-01-23T09:26:58.268Z,3.21
2023-01-23T09:29:25.225Z,3.28
2023-01-23T09:31:52.290Z,3.31
2023-01-23T09:34:19.371Z,3.44
2023-01-23T09:36:46.435Z,3.43
2023-01-23T09:39:13.479Z,3.32
2023-01-23T09:41:41.600Z,3.26
2023-01-23T09:44:34.740Z,3.05
2023-01-23T09:47:20.707Z,3.00
2023-01-23T09:50:14.554Z,2.86
2023-01-23T09:52:49.726Z,2.88
2023-01-23T09:55:40.581Z,3.03
2023-01-23T09:58:19.696Z,3.17
2023-01-23T10:00:47.460Z,3.34
2023-01-23T10:03:16.491Z,3.34
2023-01-23T10:06:14.345Z,3.23
2023-01-23T10:09:04.881Z,3.06
2023-01-23T10:12:43.104Z,3.25
2023-01-23T10:15:56.151Z,3.41
2023-01-23T10:18:38.934Z,3.38
2023-01-23T10:22:01.749Z,3.45
2023-01-23T10:24:54.016Z,3.53
2023-01-23T10:27:31.276Z,3.49
2023-01-23T10:30:04.606Z,3.44
2023-01-23T10:32:45.416Z,3.53
2023-01-23T10:35:40.682Z,3.64
2023-01-23T10:38:46.535Z,3.69
2023-01-23T10:41:21.158Z,3.67
2023-01-23T10:43:53.545Z,3.76
2023-01-23T10:46:38.682Z,3.74
2023-01-23T10:49:06.265Z,3.83
2023-01-23T10:51:38.740Z,3.81
2023-01-23T10:54:13.054Z,3.95
2023-01-23T10:56:55.738Z,3.95
2023-01-23T10:59:53.123Z,3.91
2023-01-23T11:02:29.162Z,3.80
2023-01-23T11:04:56.478Z,3.84
2023-01-23T11:07:32.127Z,3.81
2023-01-23T11:10:04.989Z,3.85
2023-01-23T11:12:46.454Z,3.82
2023-01-23T11:15:32.267Z,3.88
2023-01-23T11:18:01.457Z,3.81
2023-01-23T11:20:39.321Z,3.97
2023-01-23T11:23:10.852Z,3.94
2023-01-23T11:25:44.668Z,3.98
2023-01-23T11:28:30.797Z,4.02
2023-01-23T11:31:15.967Z,3.98
2023-01-23T11:34:09.998Z,4.03
2023-01-23T11:36:59.799Z,4.00
2023-01-23T11:39:42.742Z,4.10
2023-01-23T11:42:14.863Z,4.01
2023-01-23T11:44:46.492Z,4.02
2023-01-23T11:47:34.597Z,4.04
2023-01-23T11:50:19.612Z,4.03
2023-01-23T11:53:22.464Z,4.00
2023-01-23T11:56:36.589Z,3.99
2023-01-23T11:59:27.382Z,4.14
2023-01-23T12:02:09.414Z,4.12
2023-01-23T12:05:05.858Z,4.21
2023-01-23T12:08:14.402Z,4.20
2023-01-23T12:10:50.213Z,4.12
2023-01-23T12:13:25.609Z,4.07
2023-01-23T12:16:24.409Z,4.10
2023-01-23T12:19:06.629Z,3.98
2023-01-23T12:22:17.969Z,4.06
2023-01-23T12:25:15.911Z,4.08
2023-01-23T12:27:57.854Z,4.19
2023-01-23T12:31:18.511Z,4.14
2023-01-23T12:34:07.151Z,4.05
2023-01-23T12:37:12.361Z,4.01
2023-01-23T12:40:23.415Z,4.08
2023-01-23T12:43:04.816Z,4.07
2023-01-23T12:45:33.845Z,4.11
2023-01-23T12:48:20.509Z,4.12
2023-01-23T12:50:56.436Z,4.18
2023-01-23T12:53:24.105Z,4.16
2023-01-23T12:56:31.005Z,4.09
2023-01-23T12:59:30.353Z,4.02
2023-01-23T13:02:20.356Z,4.05
2023-01-23T13:05:32.892Z,4.08
2023-01-23T13:08:11.054Z,4.16
2023-01-23T13:11:36.442Z,4.04
2023-01-23T13:14:15.027Z,4.07
2023-01-23T13:16:48.569Z,4.15
2023-01-23T13:19:49.110Z,4.13
2023-01-23T13:22:28.656Z,4.15
2023-01-23T13:25:13.037Z,4.12
2023-01-23T13:27:58.593Z,4.12
2023-01-23T13:30:36.354Z,4.12
2023-01-23T13:33:15.204Z,4.12
2023-01-23T13:35:44.920Z,4.08
2023-01-23T13:38:29.713Z,4.09
2023-01-23T13:41:05.107Z,4.07
2023-01-23T13:43:54.189Z,4.13
2023-01-23T14:21:56.304Z,3.97
2023-01-23T14:24:46.125Z,3.90
2023-01-23T14:27:51.448Z,3.89
2023-01-23T14:30:27.076Z,3.90
2023-01-23T14:32:55.197Z,3.71
2023-01-23T14:35:32.839Z,3.48
2023-01-23T14:38:05.190Z,3.58
2023-01-23T14:40:46.609Z,3.47
2023-01-23T14:43:27.724Z,3.66
2023-01-23T14:46:22.301Z,3.46
2023-01-23T14:48:55.838Z,3.42
2023-01-23T14:51:26.846Z,3.47
2023-01-23T14:54:10.448Z,3.58
2023-01-23T14:56:39.939Z,3.62
2023-01-23T14:59:22.209Z,3.54
2023-01-23T15:02:05.379Z,3.58
2023-01-23T15:04:37.553Z,3.65
2023-01-23T15:07:04.737Z,3.68
2023-01-23T15:09:43.033Z,3.65
2023-01-23T15:12:17.876Z,3.63
2023-01-23T15:14:45.558Z,3.62
2023-01-23T15:17:20.642Z,3.57
2023-01-23T15:19:56.593Z,3.70
2023-01-23T15:22:32.693Z,3.55
2023-01-23T15:25:29.878Z,3.56
2023-01-23T15:27:57.322Z,3.65
2023-01-23T15:30:45.375Z,3.68
2023-01-23T15:33:31.917Z,3.54
2023-01-23T15:36:28.758Z,3.57
2023-01-23T15:38:59.298Z,3.37
2023-01-23T15:41:58.712Z,3.39
2023-01-23T15:44:29.349Z,3.35
2023-01-23T15:47:01.167Z,3.32
2023-01-23T15:49:29.805Z,3.45
2023-01-23T15:52:16.272Z,3.44
2023-01-23T15:54:43.483Z,3.45
2023-01-23T15:57:14.404Z,3.14
2023-01-23T15:59:41.883Z,3.12
2023-01-23T16:02:30.643Z,3.26
2023-01-23T16:04:59.199Z,3.09
2023-01-23T16:07:37.564Z,3.11
2023-01-23T16:10:33.696Z,3.12
2023-01-23T16:13:00.792Z,3.13
2023-01-23T16:15:34.377Z,3.00
2023-01-23T16:18:06.205Z,3.02
2023-01-23T16:20:41.343Z,2.80
2023-01-23T16:23:27.899Z,2.65
2023-01-23T16:25:56.716Z,2.67
2023-01-23T16:28:29.471Z,2.68
2023-01-23T16:30:56.567Z,2.81
2023-01-23T16:33:23.696Z,2.84
2023-01-23T16:35:51.523Z,2.85
2023-01-23T16:38:28.950Z,2.80
2023-01-23T16:40:59.575Z,2.80
2023-01-23T16:43:27.442Z,2.69
2023-01-23T16:45:56.559Z,2.72
2023-01-23T16:48:28.927Z,2.65
2023-01-23T16:51:24.951Z,2.78
2023-01-23T16:54:03.816Z,3.02
2023-01-23T17:00:54.828Z,2.94
2023-01-23T17:03:27.612Z,2.90
2023-01-23T17:05:54.779Z,2.79
2023-01-23T17:08:24.759Z,2.96
2023-01-23T17:11:02.149Z,3.00
2023-01-23T17:13:33.633Z,3.10
2023-01-23T17:16:02.868Z,3.17
2023-01-23T17:18:36.533Z,3.20
2023-01-23T17:21:05.970Z,3.22
2023-01-23T17:23:33.210Z,3.32
2023-01-23T17:26:01.529Z,3.32
2023-01-23T17:28:29.456Z,3.34
2023-01-23T17:31:00.564Z,3.33
2023-01-23T17:33:32.023Z,3.50
2023-01-23T17:36:00.882Z,3.41
2023-01-23T17:38:34.519Z,3.46
2023-01-23T17:41:02.296Z,3.35
2023-01-23T17:43:29.547Z,3.17
2023-01-23T17:45:56.739Z,3.12
2023-01-23T17:48:31.619Z,3.22
2023-01-23T17:50:59.368Z,3.02
2023-01-23T17:53:28.007Z,2.92
2023-01-23T17:55:55.210Z,2.84
2023-01-23T17:58:22.316Z,2.86
2023-01-23T18:00:53.441Z,3.07
2023-01-23T18:03:23.127Z,3.10
2023-01-23T18:05:50.649Z,3.12
2023-01-23T18:08:21.663Z,3.05
2023-01-23T18:10:53.024Z,3.11
2023-01-23T18:13:49.609Z,3.15
2023-01-23T18:16:32.558Z,3.14
2023-01-23T18:19:07.468Z,3.09
2023-01-23T18:21:50.849Z,3.21
2023-01-23T18:24:31.208Z,3.16
2023-01-23T18:27:23.531Z,2.80
2023-01-23T18:30:26.763Z,2.89
2023-01-23T18:33:14.882Z,2.78
2023-01-23T18:40:25.200Z,2.93
2023-01-23T18:43:24.761Z,3.07
2023-01-23T18:45:53.947Z,3.00
2023-01-23T18:48:25.914Z,2.85
2023-01-23T18:51:14.155Z,2.94
2023-01-23T18:53:52.646Z,3.07
2023-01-23T18:56:38.512Z,2.96
2023-01-23T18:59:49.514Z,3.04
2023-01-23T19:02:51.965Z,3.14
2023-01-23T19:05:23.754Z,3.06
2023-01-23T19:07:51.426Z,3.01
2023-01-23T19:10:25.814Z,3.14
2023-01-23T19:13:10.851Z,3.09
2023-01-23T19:16:17.941Z,3.33
2023-01-23T19:19:14.544Z,3.15
2023-01-23T19:21:44.151Z,3.18
2023-01-23T19:24:11.364Z,3.16
2023-01-23T19:26:41.170Z,3.23
2023-01-23T19:29:26.084Z,3.29
2023-01-23T19:32:08.921Z,3.30
2023-01-23T19:34:36.025Z,3.42
2023-01-23T19:37:04.190Z,3.36
2023-01-23T19:39:31.529Z,3.44
2023-01-23T19:41:59.346Z,3.50
2023-01-23T19:44:29.080Z,3.49
2023-01-23T19:46:56.231Z,3.49
2023-01-23T19:49:23.319Z,3.56
2023-01-23T19:51:50.322Z,3.52
2023-01-23T19:54:17.427Z,3.47
2023-01-23T19:56:44.499Z,3.52
2023-01-23T19:59:11.769Z,3.57
2023-01-23T20:01:48.538Z,3.58
2023-01-23T20:04:20.858Z,3.54
2023-01-23T20:06:50.498Z,3.62
2023-01-23T20:09:18.344Z,3.68
2023-01-23T20:11:46.638Z,3.65
2023-01-23T20:14:13.789Z,3.64
2023-01-23T20:16:43.293Z,3.62
2023-01-23T20:19:19.093Z,3.61
2023-01-23T20:21:48.341Z,3.64
2023-01-23T20:24:16.036Z,3.62
2023-01-23T20:26:43.605Z,3.65
2023-01-23T20:29:11.997Z,3.64
2023-01-23T20:31:39.093Z,3.67
2023-01-23T20:34:07.239Z,3.68
2023-01-23T20:36:34.257Z,3.61
2023-01-23T20:39:01.417Z,3.72
2023-01-23T20:41:28.514Z,3.69
2023-01-23T20:43:55.591Z,3.75
2023-01-23T20:46:22.694Z,3.62
2023-01-23T20:48:49.772Z,3.55
2023-01-23T20:51:17.369Z,3.51
2023-01-23T20:53:45.543Z,3.57
2023-01-23T20:56:16.375Z,3.65
2023-01-23T20:59:07.654Z,3.55
2023-01-23T21:01:57.138Z,3.55
2023-01-23T21:04:29.079Z,3.61
2023-01-23T21:06:56.737Z,3.68
2023-01-23T21:09:24.301Z,3.58
2023-01-23T21:11:53.088Z,3.66
2023-01-23T21:14:21.977Z,3.43
2023-01-23T21:16:49.290Z,3.27
2023-01-23T21:19:16.906Z,3.38
2023-01-23T21:21:44.040Z,3.41
2023-01-23T21:24:11.477Z,3.34
2023-01-23T21:26:39.162Z,3.33
2023-01-23T21:29:07.841Z,3.44
2023-01-23T21:31:39.288Z,3.41
2023-01-23T21:34:12.904Z,3.40
2023-01-23T21:36:42.599Z,3.50
2023-01-23T21:39:13.913Z,3.52
2023-01-23T21:41:41.005Z,3.52
2023-01-23T21:44:10.761Z,3.37
2023-01-23T21:46:38.155Z,3.32
2023-01-23T21:49:05.322Z,3.31
2023-01-23T21:51:32.605Z,3.12
2023-01-23T21:53:59.705Z,3.24
2023-01-23T21:56:26.732Z,3.35
2023-01-23T21:58:54.017Z,3.20
2023-01-23T22:01:35.610Z,3.13
2023-01-23T22:04:06.760Z,3.09
2023-01-23T22:06:35.789Z,3.12
2023-01-23T22:09:04.261Z,3.21
2023-01-23T22:11:31.477Z,3.26
2023-01-23T22:13:58.866Z,2.98
2023-01-23T22:16:46.322Z,2.75
2023-01-23T22:19:15.734Z,2.93
2023-01-23T22:21:43.866Z,2.82
2023-01-23T22:24:11.148Z,2.92
2023-01-23T22:26:38.354Z,2.85
2023-01-23T22:29:05.446Z,2.95
2023-01-23T22:31:32.572Z,2.88
2023-01-23T22:33:59.798Z,2.80
2023-01-23T22:36:26.966Z,2.56
2023-01-23T22:38:55.476Z,2.66
2023-01-23T22:41:23.191Z,2.65
2023-01-23T22:43:59.340Z,2.78
2023-01-23T22:46:28.472Z,2.73
2023-01-23T22:48:55.606Z,2.85
2023-01-23T22:51:25.940Z,2.87
2023-01-23T22:53:54.776Z,2.93
2023-01-23T22:56:22.673Z,2.97
2023-01-23T22:58:51.861Z,2.92
2023-01-23T23:01:20.001Z,3.03
2023-01-23T23:03:47.225Z,2.96
2023-01-23T23:06:16.725Z,3.06
2023-01-23T23:08:47.679Z,2.87
2023-01-23T23:11:27.444Z,3.03
2023-01-23T23:13:56.523Z,2.98
2023-01-23T23:16:31.608Z,2.99
2023-01-23T23:19:03.115Z,2.99
2023-01-23T23:21:35.648Z,3.01
2023-01-23T23:24:09.386Z,3.16
2023-01-23T23:26:36.563Z,3.14
2023-01-23T23:29:04.890Z,3.18
2023-01-23T23:31:32.734Z,3.04
2023-01-23T23:34:00.306Z,2.98
2023-01-23T23:36:27.919Z,3.00
2023-01-23T23:38:55.083Z,3.13
2023-01-23T23:41:22.268Z,3.02
2023-01-23T23:43:49.279Z,3.03
2023-01-23T23:46:17.699Z,2.94
2023-01-23T23:48:46.266Z,3.08
2023-01-23T23:51:16.819Z,3.02
2023-01-23T23:53:44.161Z,3.02
2023-01-23T23:56:23.311Z,3.06
2023-01-23T23:58:51.146Z,2.91
